Time;durP1;ratioP1;P1;durP2;ratioP2;P2;SDS_P1;SDS_P2;PMS_P1;PMS_P2;Temp;Humidity;BMP_temperature;BMP_pressure;BME280_temperature;BME280_humidity;BME280_pressure;Samples;Min_cycle;Max_cycle;Signal;HPM_P1;HPM_P2
2021/06/06 00:00:16;;;;;;;32.10;22.75;;;;;;;16.38;100.00;99954.59;4947654;29;20237;-76
2021/06/06 00:02:42;;;;;;;38.10;23.67;;;;;;;16.46;100.00;99956.69;4947193;29;20189;-76
2021/06/06 00:05:12;;;;;;;36.15;21.08;;;;;;;16.58;100.00;99955.78;4946998;29;20197;-76
2021/06/06 00:07:38;;;;;;;36.13;22.75;;;;;;;16.57;100.00;99954.03;4946125;29;20225;-76
2021/06/06 00:10:06;;;;;;;27.08;21.08;;;;;;;16.59;100.00;99956.63;4943905;29;20202;-75
2021/06/06 00:12:33;;;;;;;30.50;20.30;;;;;;;16.64;100.00;99968.00;4939087;29;20324;-75
2021/06/06 00:14:59;;;;;;;30.88;20.70;;;;;;;16.55;100.00;99953.31;4942923;29;20224;-76
2021/06/06 00:17:25;;;;;;;28.75;20.58;;;;;;;16.54;100.00;99956.13;4945917;29;20217;-76
2021/06/06 00:19:52;;;;;;;31.92;20.67;;;;;;;16.65;100.00;99964.31;4946271;29;20333;-75
2021/06/06 00:22:21;;;;;;;30.88;20.83;;;;;;;16.61;100.00;99960.97;4941141;29;20333;-75
2021/06/06 00:24:47;;;;;;;33.25;21.20;;;;;;;16.49;100.00;99963.78;4941732;29;20695;-76
2021/06/06 00:27:13;;;;;;;33.55;21.35;;;;;;;16.39;100.00;99963.59;4939549;29;20205;-76
2021/06/06 00:29:40;;;;;;;28.88;20.60;;;;;;;16.38;100.00;99964.59;4951374;29;20224;-76
2021/06/06 00:32:07;;;;;;;31.27;21.15;;;;;;;16.40;100.00;99966.22;4958437;29;20705;-76
2021/06/06 00:34:33;;;;;;;30.75;21.75;;;;;;;16.31;100.00;99971.50;4962079;29;20295;-75
2021/06/06 00:36:59;;;;;;;29.90;20.02;;;;;;;16.18;100.00;99963.38;4961346;28;20196;-75
2021/06/06 00:39:27;;;;;;;31.63;21.80;;;;;;;16.22;100.00;99960.31;4946047;29;20656;-76
2021/06/06 00:41:54;;;;;;;33.47;21.98;;;;;;;16.31;100.00;99960.63;4943864;29;20212;-76
2021/06/06 00:44:23;;;;;;;29.10;20.48;;;;;;;16.40;100.00;99959.91;4940229;29;20196;-76
2021/06/06 00:46:50;;;;;;;30.52;21.63;;;;;;;16.23;100.00;99964.75;4940838;29;20189;-76
2021/06/06 00:49:16;;;;;;;29.75;19.83;;;;;;;16.23;100.00;99961.19;4939988;29;20276;-76
2021/06/06 00:51:49;;;;;;;25.63;20.67;;;;;;;16.39;100.00;99964.50;4951741;29;20319;-76
2021/06/06 00:54:19;;;;;;;31.80;21.05;;;;;;;16.42;100.00;99975.13;4960106;29;20189;-76
2021/06/06 00:56:50;;;;;;;29.17;20.75;;;;;;;16.32;100.00;99974.06;4959536;28;20585;-76
2021/06/06 00:59:19;;;;;;;31.85;21.52;;;;;;;16.25;100.00;99968.22;4959950;28;20682;-76
2021/06/06 01:01:46;;;;;;;29.75;20.35;;;;;;;16.30;100.00;99967.88;4959440;29;20560;-76
2021/06/06 01:04:13;;;;;;;33.67;21.10;;;;;;;16.44;100.00;99970.44;4958609;28;20235;-76
2021/06/06 01:06:44;;;;;;;33.78;20.85;;;;;;;16.28;100.00;99967.16;4958438;29;20204;-75
2021/06/06 01:09:12;;;;;;;28.20;20.35;;;;;;;16.36;100.00;99961.13;4958349;28;20251;-75
2021/06/06 01:11:44;;;;;;;29.00;22.02;;;;;;;16.15;100.00;99960.91;4957333;28;20271;-75
2021/06/06 01:14:17;;;;;;;31.45;21.13;;;;;;;16.24;100.00;99962.94;4955987;29;20189;-75
2021/06/06 01:16:47;;;;;;;33.38;22.48;;;;;;;16.22;100.00;99968.47;4958122;29;20216;-75
2021/06/06 01:19:27;;;;;;;28.15;20.95;;;;;;;16.23;100.00;99966.63;4958006;29;20268;-75
2021/06/06 01:22:09;;;;;;;30.52;20.98;;;;;;;16.27;100.00;99958.13;4957196;29;20191;-75
2021/06/06 01:24:39;;;;;;;31.20;21.63;;;;;;;16.31;100.00;99960.63;4958064;28;20224;-75
2021/06/06 01:27:09;;;;;;;27.60;20.48;;;;;;;16.24;100.00;99962.94;4959185;28;20654;-75
2021/06/06 01:29:41;;;;;;;27.73;19.90;;;;;;;16.16;100.00;99957.19;4960629;29;20522;-75
2021/06/06 01:32:14;;;;;;;32.20;21.38;;;;;;;16.26;100.00;99950.97;4958761;29;20602;-75
2021/06/06 01:34:43;;;;;;;32.58;21.30;;;;;;;16.34;100.00;99949.50;4958454;28;20280;-75
2021/06/06 01:37:13;;;;;;;33.10;21.45;;;;;;;16.49;100.00;99948.34;4959831;29;20189;-75
2021/06/06 01:39:45;;;;;;;30.90;23.05;;;;;;;16.40;100.00;99949.91;4959316;28;20514;-76
2021/06/06 01:42:14;;;;;;;28.08;21.02;;;;;;;16.40;100.00;99949.03;4959242;29;20502;-76
2021/06/06 01:44:44;;;;;;;28.30;20.38;;;;;;;16.36;100.00;99952.97;4959241;29;20275;-76
2021/06/06 01:47:15;;;;;;;32.83;21.45;;;;;;;16.41;100.00;99957.06;4958139;29;20320;-76
2021/06/06 01:49:45;;;;;;;30.85;22.25;;;;;;;16.38;100.00;99946.44;4960034;29;20295;-76
2021/06/06 01:52:13;;;;;;;29.77;20.67;;;;;;;16.43;100.00;99955.09;4958802;29;20213;-76
2021/06/06 01:54:43;;;;;;;29.95;21.65;;;;;;;16.45;100.00;99952.25;4961133;29;20542;-76
2021/06/06 01:57:15;;;;;;;29.42;20.98;;;;;;;16.39;100.00;99948.19;4960482;29;20218;-76
2021/06/06 01:59:45;;;;;;;30.38;20.75;;;;;;;16.47;100.00;99950.28;4961093;29;20247;-76
2021/06/06 02:02:11;;;;;;;32.90;22.05;;;;;;;16.29;100.00;99944.41;4961486;29;20201;-76
2021/06/06 02:04:38;;;;;;;30.13;20.95;;;;;;;16.29;100.00;99941.69;4958543;28;20208;-75
2021/06/06 02:07:10;;;;;;;30.08;21.42;;;;;;;16.13;100.00;99935.72;4956960;29;20248;-75
2021/06/06 02:09:43;;;;;;;29.10;20.88;;;;;;;16.13;100.00;99938.44;4959146;29;20258;-76
2021/06/06 02:12:10;;;;;;;27.30;20.35;;;;;;;16.18;100.00;99930.78;4941425;29;20236;-76
2021/06/06 02:14:39;;;;;;;27.67;21.10;;;;;;;16.22;100.00;99929.56;4940486;29;20198;-76
2021/06/06 02:17:09;;;;;;;30.52;22.08;;;;;;;16.19;100.00;99933.41;4940413;29;20306;-76
2021/06/06 02:19:41;;;;;;;33.70;24.00;;;;;;;16.24;100.00;99933.91;4940805;29;20233;-76
2021/06/06 02:22:11;;;;;;;29.73;21.05;;;;;;;16.22;100.00;99932.28;4940615;29;20196;-76
2021/06/06 02:24:38;;;;;;;33.53;22.20;;;;;;;16.34;100.00;99922.31;4940602;29;20186;-76
2021/06/06 02:27:12;;;;;;;33.67;23.52;;;;;;;16.41;100.00;99921.72;4941291;29;20276;-76
2021/06/06 02:29:47;;;;;;;31.80;23.55;;;;;;;16.51;100.00;99929.16;4941833;29;20267;-76
2021/06/06 02:32:20;;;;;;;33.10;22.73;;;;;;;16.62;100.00;99923.75;4941419;29;20217;-76
2021/06/06 02:34:58;;;;;;;30.42;22.17;;;;;;;16.69;100.00;99927.75;4940383;29;20222;-76
2021/06/06 02:37:27;;;;;;;29.77;21.00;;;;;;;16.60;100.00;99925.75;4940584;29;20190;-76
2021/06/06 02:39:59;;;;;;;31.50;22.63;;;;;;;16.44;100.00;99937.81;4941717;29;20715;-76
2021/06/06 02:42:32;;;;;;;31.33;22.85;;;;;;;16.33;100.00;99929.63;4939696;29;20329;-76
2021/06/06 02:45:06;;;;;;;29.90;22.83;;;;;;;16.50;100.00;99927.44;4940128;29;20252;-76
2021/06/06 02:47:35;;;;;;;30.52;22.77;;;;;;;16.45;100.00;99928.66;4939698;29;20627;-76
2021/06/06 02:50:07;;;;;;;35.50;23.33;;;;;;;16.59;100.00;99916.72;4940263;29;20189;-76
2021/06/06 02:52:41;;;;;;;30.70;22.25;;;;;;;16.64;100.00;99919.97;4939579;29;20300;-76
2021/06/06 02:55:12;;;;;;;32.25;24.42;;;;;;;16.74;100.00;99913.78;4941024;29;20200;-76
2021/06/06 02:57:47;;;;;;;32.83;24.10;;;;;;;16.57;100.00;99912.38;4959333;29;20641;-76
2021/06/06 03:00:18;;;;;;;34.00;25.27;;;;;;;16.61;100.00;99912.03;4958260;29;20308;-76
2021/06/06 03:02:49;;;;;;;34.00;24.15;;;;;;;16.71;99.66;99909.47;4943878;29;20182;-76
2021/06/06 03:05:19;;;;;;;31.70;22.63;;;;;;;16.51;100.00;99911.03;4947617;29;20284;-76
2021/06/06 03:07:49;;;;;;;32.10;24.88;;;;;;;16.58;100.00;99914.13;4946496;29;20197;-76
2021/06/06 03:10:17;;;;;;;33.92;24.75;;;;;;;16.68;100.00;99910.56;4957324;28;20220;-76
2021/06/06 03:12:47;;;;;;;33.35;24.58;;;;;;;16.73;100.00;99915.63;4959814;29;20367;-76
2021/06/06 03:15:15;;;;;;;30.88;23.60;;;;;;;16.87;98.70;99910.00;4959591;28;20228;-76
2021/06/06 03:17:44;;;;;;;31.45;23.30;;;;;;;16.73;99.13;99912.91;4958900;29;20224;-76
2021/06/06 03:20:14;;;;;;;34.97;25.38;;;;;;;16.57;99.69;99913.25;4959415;29;20277;-76
2021/06/06 03:22:42;;;;;;;31.80;25.05;;;;;;;16.58;100.00;99911.41;4956783;29;20188;-76
2021/06/06 03:25:13;;;;;;;37.50;25.98;;;;;;;16.52;100.00;99910.03;4956706;29;20285;-76
2021/06/06 03:27:43;;;;;;;36.15;24.55;;;;;;;16.41;100.00;99919.00;4939461;29;20247;-76
2021/06/06 03:30:29;;;;;;;37.63;27.67;;;;;;;16.36;100.00;99913.06;4954722;29;20188;-76
2021/06/06 03:32:58;;;;;;;36.85;25.08;;;;;;;16.32;100.00;99918.84;4953573;29;20654;-76
2021/06/06 03:35:25;;;;;;;36.45;27.77;;;;;;;16.33;100.00;99916.03;4956051;29;20200;-76
2021/06/06 03:37:51;;;;;;;40.50;27.00;;;;;;;16.32;100.00;99918.84;4949266;29;20184;-76
2021/06/06 03:40:19;;;;;;;45.70;26.13;;;;;;;16.49;100.00;99923.00;4949496;29;20209;-76
2021/06/06 03:42:45;;;;;;;34.20;25.00;;;;;;;16.53;100.00;99913.59;4949194;29;20232;-76
2021/06/06 03:45:14;;;;;;;38.08;27.80;;;;;;;16.51;100.00;99915.56;4957490;29;20288;-76
2021/06/06 03:47:40;;;;;;;41.83;26.63;;;;;;;16.47;100.00;99907.66;4957237;28;20224;-76
2021/06/06 03:50:10;;;;;;;38.55;28.30;;;;;;;16.56;99.86;99914.25;4957383;29;20196;-76
2021/06/06 03:52:37;;;;;;;41.40;28.65;;;;;;;16.36;100.00;99913.06;4956501;29;20222;-76
2021/06/06 03:55:05;;;;;;;38.75;29.83;;;;;;;16.45;100.00;99916.94;4957607;29;20192;-76
2021/06/06 03:57:32;;;;;;;38.33;26.33;;;;;;;16.34;100.00;99917.75;4955289;29;20284;-76
2021/06/06 03:59:58;;;;;;;39.58;29.98;;;;;;;16.28;100.00;99923.69;4950288;29;20621;-75
2021/06/06 04:02:26;;;;;;;39.67;28.48;;;;;;;16.37;100.00;99913.94;4957557;29;20331;-76
2021/06/06 04:04:52;;;;;;;37.65;28.35;;;;;;;16.42;100.00;99917.19;4956191;29;20287;-75
2021/06/06 04:07:18;;;;;;;42.10;29.85;;;;;;;16.67;99.92;99918.84;4956995;29;20203;-76
2021/06/06 04:09:44;;;;;;;36.15;27.17;;;;;;;16.40;100.00;99921.88;4947454;29;20264;-76
2021/06/06 04:12:11;;;;;;;39.65;28.10;;;;;;;16.50;100.00;99922.00;4943908;29;20233;-75
2021/06/06 04:14:37;;;;;;;44.42;28.50;;;;;;;16.43;100.00;99917.03;4967897;29;20279;-76
2021/06/06 04:17:04;;;;;;;48.83;31.73;;;;;;;16.39;100.00;99915.56;4969466;29;20207;-75
2021/06/06 04:19:31;;;;;;;43.35;29.55;;;;;;;16.50;100.00;99922.88;4949857;29;20192;-76
2021/06/06 04:21:57;;;;;;;45.03;30.20;;;;;;;16.53;99.71;99919.94;4948985;28;20205;-76
2021/06/06 04:24:23;;;;;;;40.83;29.45;;;;;;;16.53;99.52;99919.03;4952633;29;20198;-75
2021/06/06 04:26:50;;;;;;;46.40;30.90;;;;;;;16.58;99.39;99914.13;4939010;29;20197;-76
2021/06/06 04:29:16;;;;;;;43.10;30.27;;;;;;;16.44;100.00;99924.22;4957514;29;20235;-76
2021/06/06 04:31:42;;;;;;;38.42;28.58;;;;;;;16.53;100.00;99919.03;4957947;29;20221;-76
2021/06/06 04:34:09;;;;;;;48.35;30.58;;;;;;;16.39;100.00;99912.84;4958516;28;20307;-75
2021/06/06 04:36:36;;;;;;;45.40;29.55;;;;;;;16.55;99.98;99920.69;4961970;29;20275;-76
2021/06/06 04:39:04;;;;;;;41.30;29.40;;;;;;;16.35;100.00;99911.34;4944005;28;20209;-76
2021/06/06 04:41:30;;;;;;;41.88;28.73;;;;;;;16.44;100.00;99912.50;4949269;29;20653;-76
2021/06/06 04:43:56;;;;;;;45.22;30.83;;;;;;;16.38;100.00;99918.41;4961563;29;20196;-76
2021/06/06 04:46:22;;;;;;;43.70;29.80;;;;;;;16.32;100.00;99919.72;4960933;29;20197;-76
2021/06/06 04:48:48;;;;;;;43.85;28.05;;;;;;;16.41;100.00;99918.16;4961302;29;20189;-76
2021/06/06 04:51:18;;;;;;;42.40;29.52;;;;;;;16.50;100.00;99916.56;4957928;29;20201;-76
2021/06/06 04:53:46;;;;;;;39.38;29.25;;;;;;;16.58;99.91;99922.28;4943077;29;20221;-76
2021/06/06 04:56:19;;;;;;;45.80;30.63;;;;;;;16.66;99.92;99920.72;4961424;29;20223;-76
2021/06/06 04:58:46;;;;;;;40.78;29.60;;;;;;;16.85;97.55;99917.44;4961191;29;20588;-76
2021/06/06 05:01:12;;;;;;;47.55;31.00;;;;;;;16.90;97.52;99918.91;4958805;29;20523;-76
2021/06/06 05:03:39;;;;;;;37.72;28.30;;;;;;;17.11;96.98;99924.50;4948295;29;20619;-76
2021/06/06 05:06:05;;;;;;;42.60;29.15;;;;;;;17.12;95.16;99928.94;4960911;29;20227;-76
2021/06/06 05:08:32;;;;;;;45.97;29.88;;;;;;;16.96;96.11;99923.84;4948916;29;20276;-76
2021/06/06 05:10:59;;;;;;;40.00;28.40;;;;;;;16.73;97.48;99923.78;4949545;29;20284;-76
2021/06/06 05:13:26;;;;;;;40.38;30.52;;;;;;;16.60;98.07;99928.47;4961221;29;20197;-76
2021/06/06 05:15:54;;;;;;;43.33;30.42;;;;;;;16.50;98.80;99925.59;4953232;29;20268;-75
2021/06/06 05:18:21;;;;;;;44.28;29.33;;;;;;;16.75;97.61;99927.25;4958203;29;20297;-75
2021/06/06 05:20:48;;;;;;;43.58;31.00;;;;;;;16.80;98.12;99929.63;4958550;29;20189;-75
2021/06/06 05:23:15;;;;;;;42.45;30.25;;;;;;;16.82;96.93;99927.66;4952757;29;20197;-76
2021/06/06 05:25:42;;;;;;;41.30;28.60;;;;;;;17.09;95.71;99925.50;4960191;29;20200;-76
2021/06/06 05:28:13;;;;;;;40.53;30.02;;;;;;;16.88;95.59;99927.19;4959969;29;20279;-75
2021/06/06 05:30:40;;;;;;;44.95;31.13;;;;;;;16.72;97.52;99927.50;4958159;28;20207;-77
2021/06/06 05:33:07;;;;;;;43.63;30.27;;;;;;;16.88;97.28;99922.59;4961914;29;20212;-76
2021/06/06 05:35:35;;;;;;;44.00;29.02;;;;;;;17.05;95.40;99929.44;4954305;29;20188;-76
2021/06/06 05:38:02;;;;;;;38.60;29.50;;;;;;;17.04;95.02;99930.41;4961508;29;20599;-77
2021/06/06 05:40:30;;;;;;;37.88;29.25;;;;;;;17.05;95.29;99928.59;4960393;29;20236;-76
2021/06/06 05:42:56;;;;;;;43.00;30.77;;;;;;;16.83;96.39;99924.84;4958193;29;20211;-75
2021/06/06 05:45:25;;;;;;;45.47;31.83;;;;;;;16.91;96.09;99921.50;4959515;28;20295;-76
2021/06/06 05:47:52;;;;;;;39.90;29.23;;;;;;;17.19;95.43;99922.88;4960130;28;20186;-76
2021/06/06 05:50:24;;;;;;;40.65;27.70;;;;;;;17.46;93.47;99919.78;4960227;29;20213;-76
2021/06/06 05:52:50;;;;;;;44.97;31.58;;;;;;;17.54;94.02;99919.16;4961991;29;20551;-76
2021/06/06 05:55:19;;;;;;;41.90;29.73;;;;;;;17.51;92.07;99917.53;4962312;28;20262;-76
2021/06/06 05:57:46;;;;;;;44.88;29.70;;;;;;;17.38;92.81;99924.97;4960730;28;20276;-75
2021/06/06 06:00:15;;;;;;;36.05;27.52;;;;;;;17.38;92.63;99927.69;4949433;29;20235;-76
2021/06/06 06:02:43;;;;;;;49.10;29.73;;;;;;;17.44;93.25;99927.22;4960614;29;20277;-76
2021/06/06 06:05:10;;;;;;;39.95;27.83;;;;;;;17.52;92.70;99923.84;4961159;29;20253;-76
2021/06/06 06:07:36;;;;;;;36.55;27.98;;;;;;;17.51;93.45;99928.44;4961137;28;20208;-76
2021/06/06 06:10:04;;;;;;;39.45;27.40;;;;;;;17.77;91.62;99924.56;4960373;28;20213;-75
2021/06/06 06:12:30;;;;;;;38.97;26.80;;;;;;;17.78;90.77;99931.75;4957310;29;20244;-75
2021/06/06 06:14:56;;;;;;;36.05;26.52;;;;;;;17.62;90.82;99933.00;4957891;29;20656;-75
2021/06/06 06:17:22;;;;;;;41.28;27.92;;;;;;;17.47;92.03;99934.25;4959860;28;20204;-76
2021/06/06 06:19:50;;;;;;;41.10;28.27;;;;;;;17.54;91.92;99945.50;4962086;29;20251;-76
2021/06/06 06:22:16;;;;;;;38.25;27.45;;;;;;;17.61;92.86;99942.16;4958500;29;20234;-75
2021/06/06 06:24:42;;;;;;;38.88;25.67;;;;;;;17.78;90.93;99938.06;4958458;29;20719;-76
2021/06/06 06:27:08;;;;;;;40.03;26.95;;;;;;;17.90;89.59;99941.63;4960597;29;20209;-75
2021/06/06 06:29:34;;;;;;;38.05;27.40;;;;;;;17.93;89.46;99946.81;4959141;29;20186;-75
2021/06/06 06:32:01;;;;;;;39.72;27.90;;;;;;;17.58;90.89;99944.28;4957291;28;20613;-75
2021/06/06 06:34:27;;;;;;;33.85;24.85;;;;;;;17.75;90.34;99942.88;4958476;28;20208;-76
2021/06/06 06:36:55;;;;;;;35.75;24.85;;;;;;;17.90;89.47;99936.19;4956816;29;20187;-75
2021/06/06 06:39:21;;;;;;;35.25;25.63;;;;;;;17.61;89.76;99946.72;4954912;29;20600;-75
2021/06/06 06:41:47;;;;;;;39.25;25.85;;;;;;;17.63;91.63;99942.03;4950104;29;20214;-75
2021/06/06 06:44:13;;;;;;;35.08;25.10;;;;;;;17.66;90.73;99942.66;4955397;29;20280;-75
2021/06/06 06:46:39;;;;;;;33.17;22.60;;;;;;;17.79;88.57;99938.91;4938491;29;20230;-75
2021/06/06 06:49:05;;;;;;;33.95;24.70;;;;;;;17.90;88.48;99947.94;4945227;29;20195;-75
2021/06/06 06:51:31;;;;;;;31.85;22.92;;;;;;;17.88;87.72;99944.47;4937377;29;20310;-75
2021/06/06 06:54:01;;;;;;;29.13;23.30;;;;;;;18.11;86.14;99938.97;4945292;29;20227;-76
2021/06/06 06:56:29;;;;;;;30.67;22.75;;;;;;;18.10;85.63;99946.28;4965919;29;20657;-75
2021/06/06 06:58:56;;;;;;;32.17;23.17;;;;;;;18.29;85.21;99944.72;4957843;28;20185;-74
2021/06/06 07:01:23;;;;;;;29.05;22.10;;;;;;;18.23;85.09;99945.25;4955316;29;20336;-74
2021/06/06 07:03:49;;;;;;;31.85;21.85;;;;;;;18.16;85.94;99955.81;4949332;29;20665;-75
2021/06/06 07:06:16;;;;;;;26.63;22.50;;;;;;;18.37;84.22;99953.13;4955601;29;20198;-75
2021/06/06 07:08:44;;;;;;;27.35;21.42;;;;;;;18.59;83.49;99959.44;4955664;29;20289;-75
2021/06/06 07:11:16;;;;;;;27.35;20.27;;;;;;;18.36;83.01;99954.13;4940847;29;20261;-75
2021/06/06 07:13:43;;;;;;;25.17;19.27;;;;;;;18.21;82.69;99958.16;4947468;29;20284;-75
2021/06/06 07:16:10;;;;;;;27.13;20.33;;;;;;;17.83;85.26;99949.47;4955931;29;20204;-76
2021/06/06 07:18:38;;;;;;;25.95;19.67;;;;;;;18.21;83.88;99955.44;4955762;28;20199;-76
2021/06/06 07:21:07;;;;;;;25.85;20.00;;;;;;;18.40;83.01;99960.19;4955730;29;20270;-76
2021/06/06 07:23:34;;;;;;;24.20;21.45;;;;;;;18.20;83.50;99965.44;4939277;29;20618;-76
2021/06/06 07:26:03;;;;;;;24.52;21.25;;;;;;;18.33;82.87;99959.81;4938322;29;20192;-75
2021/06/06 07:28:31;;;;;;;27.75;19.75;;;;;;;18.40;82.12;99963.75;4953653;29;20203;-75
2021/06/06 07:31:00;;;;;;;20.80;17.65;;;;;;;18.48;81.81;99958.53;4953519;29;20211;-75
2021/06/06 07:33:31;;;;;;;26.08;18.65;;;;;;;18.63;81.17;99960.94;4945832;29;20303;-76
2021/06/06 07:35:58;;;;;;;21.02;16.73;;;;;;;19.26;78.39;99953.59;4955392;29;20232;-76
2021/06/06 07:38:26;;;;;;;24.48;18.42;;;;;;;19.65;76.13;99953.78;4939569;28;20284;-75
2021/06/06 07:40:55;;;;;;;20.02;16.58;;;;;;;19.91;74.71;99954.16;4944744;29;20280;-76
2021/06/06 07:43:21;;;;;;;20.20;17.23;;;;;;;20.24;72.96;99954.78;4944899;29;20197;-75
2021/06/06 07:45:49;;;;;;;19.77;16.17;;;;;;;20.27;71.94;99954.50;4955163;29;20232;-75
2021/06/06 07:48:15;;;;;;;19.50;16.90;;;;;;;19.63;74.00;99955.78;4955566;29;20282;-75
2021/06/06 07:50:43;;;;;;;22.73;16.35;;;;;;;19.75;74.17;99964.75;4954583;29;20442;-76
2021/06/06 07:53:10;;;;;;;21.17;15.30;;;;;;;19.25;76.92;99960.06;4954491;29;20208;-75
2021/06/06 07:55:36;;;;;;;19.38;16.35;;;;;;;19.44;75.88;99967.47;4954712;29;20606;-75
2021/06/06 07:58:04;;;;;;;19.07;15.37;;;;;;;18.96;75.77;99955.31;4948126;28;20203;-76
2021/06/06 08:00:33;;;;;;;21.55;15.40;;;;;;;19.20;77.43;99959.63;4954375;28;20444;-74
2021/06/06 08:03:01;;;;;;;21.58;16.48;;;;;;;19.53;75.08;99953.00;4954199;29;20289;-74
2021/06/06 08:05:27;;;;;;;19.58;14.85;;;;;;;19.47;74.59;99956.28;4954665;28;20223;-75
2021/06/06 08:07:53;;;;;;;19.85;15.77;;;;;;;19.86;72.95;99955.59;4944392;28;20966;-75
2021/06/06 08:10:22;;;;;;;18.00;14.77;;;;;;;19.83;72.71;99962.19;4952410;29;20308;-75
2021/06/06 08:12:49;;;;;;;22.35;16.98;;;;;;;19.42;74.85;99963.16;4956276;28;20319;-74
2021/06/06 08:15:16;;;;;;;21.08;14.20;;;;;;;19.59;73.51;99954.31;4955612;29;20271;-75
2021/06/06 08:17:43;;;;;;;17.83;15.03;;;;;;;19.50;73.89;99957.88;4958152;29;20240;-74
2021/06/06 08:20:15;;;;;;;23.40;15.55;;;;;;;19.63;73.69;99953.03;4947550;29;20960;-75
2021/06/06 08:22:42;;;;;;;16.83;13.95;;;;;;;19.71;74.13;99958.69;4956015;29;20218;-75
2021/06/06 08:25:11;;;;;;;16.48;14.73;;;;;;;19.71;73.92;99952.38;4958561;28;20750;-75
2021/06/06 08:27:38;;;;;;;17.07;14.00;;;;;;;19.85;73.59;99951.13;4957859;29;20193;-74
2021/06/06 08:30:08;;;;;;;16.47;13.80;;;;;;;20.11;71.73;99952.31;4951032;29;20448;-74
2021/06/06 08:32:34;;;;;;;16.05;12.93;;;;;;;19.83;72.07;99954.00;4944525;29;20504;-74
2021/06/06 08:35:00;;;;;;;17.23;12.83;;;;;;;19.64;72.84;99953.91;4956768;29;20308;-74
2021/06/06 08:37:28;;;;;;;16.90;13.80;;;;;;;19.78;72.21;99959.84;4957964;29;20455;-75
2021/06/06 08:39:54;;;;;;;17.33;12.43;;;;;;;19.81;71.00;99950.53;4958049;28;20502;-75
2021/06/06 08:42:24;;;;;;;14.80;11.97;;;;;;;19.24;71.26;99960.19;4958068;28;20910;-75
2021/06/06 08:45:02;;;;;;;15.67;12.33;;;;;;;19.27;72.59;99963.53;4942246;29;20536;-74
2021/06/06 08:47:30;;;;;;;13.03;11.57;;;;;;;19.47;71.97;99955.41;4952228;29;20914;-74
2021/06/06 08:50:00;;;;;;;16.23;12.05;;;;;;;19.39;72.06;99961.56;4955883;29;20527;-74
2021/06/06 08:52:37;;;;;;;12.05;9.57;;;;;;;19.72;68.53;99965.03;4952289;29;20307;-74
2021/06/06 08:55:11;;;;;;;12.60;10.70;;;;;;;20.73;65.75;99973.94;4956942;29;20185;-74
2021/06/06 08:57:41;;;;;;;13.20;10.93;;;;;;;20.94;65.28;99974.66;4947163;29;20919;-74
2021/06/06 09:00:13;;;;;;;15.97;12.27;;;;;;;21.43;63.77;99975.41;4955327;29;20527;-73
2021/06/06 09:02:47;;;;;;;15.23;11.03;;;;;;;21.30;63.62;99969.38;4953990;28;20440;-73
2021/06/06 09:05:24;;;;;;;13.90;10.40;;;;;;;20.92;64.48;99979.41;4956668;29;20482;-74
2021/06/06 09:07:52;;;;;;;14.60;10.63;;;;;;;20.84;65.47;99979.28;4942951;28;20457;-72
2021/06/06 09:10:22;;;;;;;14.07;11.00;;;;;;;20.75;65.58;99978.25;4948419;29;20455;-75
2021/06/06 09:12:49;;;;;;;15.43;12.07;;;;;;;21.02;65.17;99972.03;4956426;29;20502;-74
2021/06/06 09:15:18;;;;;;;15.03;11.70;;;;;;;20.49;65.79;99969.75;4957053;29;20908;-75
2021/06/06 09:17:46;;;;;;;14.93;11.17;;;;;;;21.01;64.72;99964.84;4957064;29;20446;-74
2021/06/06 09:20:29;;;;;;;13.27;10.27;;;;;;;21.00;64.54;99967.72;4956240;28;20432;-74
2021/06/06 09:23:13;;;;;;;13.43;10.47;;;;;;;21.62;62.54;99963.50;4938351;29;21047;-74
2021/06/06 09:25:41;;;;;;;13.13;10.20;;;;;;;20.59;64.68;99970.66;4950336;29;20503;-75
2021/06/06 09:28:12;;;;;;;11.20;9.60;;;;;;;20.54;65.82;99972.94;4956821;29;20448;-74
2021/06/06 09:30:41;;;;;;;13.37;11.10;;;;;;;20.51;65.96;99970.50;4949522;29;20444;-75
2021/06/06 09:33:12;;;;;;;11.53;10.03;;;;;;;20.89;64.36;99966.00;4948841;29;20899;-75
2021/06/06 09:35:49;;;;;;;9.80;8.80;;;;;;;21.01;63.72;99984.00;4949730;29;20472;-74
2021/06/06 09:38:34;;;;;;;9.97;8.60;;;;;;;21.08;63.19;99972.47;4939994;29;20445;-74
2021/06/06 09:41:12;;;;;;;11.90;9.73;;;;;;;21.18;63.44;99973.28;4952590;29;20433;-75
2021/06/06 09:43:39;;;;;;;10.47;8.93;;;;;;;21.21;63.56;99978.47;4941158;29;20436;-74
2021/06/06 09:46:07;;;;;;;8.23;7.43;;;;;;;20.81;64.73;99968.63;4956582;29;20436;-74
2021/06/06 09:48:39;;;;;;;11.77;10.20;;;;;;;21.09;64.38;99971.44;4953200;29;20523;-73
2021/06/06 09:51:13;;;;;;;12.50;8.90;;;;;;;21.13;62.90;99972.88;4944464;29;20452;-75
2021/06/06 09:53:42;;;;;;;10.07;8.47;;;;;;;20.90;64.03;99973.22;4956548;29;20490;-75
2021/06/06 09:56:15;;;;;;;8.83;7.33;;;;;;;20.70;65.28;99972.38;4956422;29;20480;-74
2021/06/06 09:58:41;;;;;;;11.33;8.57;;;;;;;20.80;65.41;99975.09;4945345;29;20520;-75
2021/06/06 10:01:23;;;;;;;10.60;9.17;;;;;;;20.74;65.84;99972.97;4943761;29;20519;-74
2021/06/06 10:03:56;;;;;;;11.47;9.23;;;;;;;20.68;65.90;99970.78;4949662;29;20962;-74
2021/06/06 10:06:31;;;;;;;8.60;7.70;;;;;;;21.25;64.64;99977.16;4947756;29;20672;-74
2021/06/06 10:09:07;;;;;;;10.63;9.47;;;;;;;21.07;65.06;99978.94;4950898;29;20806;-75
2021/06/06 10:11:49;;;;;;;10.70;8.67;;;;;;;21.34;63.62;99973.53;4956336;29;20562;-75
2021/06/06 10:14:17;;;;;;;9.10;8.03;;;;;;;21.67;61.46;99973.16;4948257;28;20920;-74
2021/06/06 10:16:46;;;;;;;10.03;7.80;;;;;;;22.01;60.52;99982.47;4955504;28;20451;-74
2021/06/06 10:19:21;;;;;;;9.43;8.43;;;;;;;22.67;58.06;99978.56;4956059;28;20457;-74
2021/06/06 10:21:53;;;;;;;10.23;8.90;;;;;;;23.01;56.32;99974.22;4937367;29;20445;-73
2021/06/06 10:24:29;;;;;;;9.33;8.20;;;;;;;22.93;56.77;99974.13;4952208;29;20450;-72
2021/06/06 10:26:57;;;;;;;12.90;8.17;;;;;;;22.59;57.83;99975.75;4955745;29;20440;-74
2021/06/06 10:29:35;;;;;;;9.00;8.10;;;;;;;22.37;58.91;99977.06;4955467;29;20813;-74
2021/06/06 10:32:08;;;;;;;10.93;7.20;;;;;;;21.53;62.31;99969.03;4953696;28;20527;-74
2021/06/06 10:34:40;;;;;;;8.03;7.33;;;;;;;21.37;64.14;99973.25;4955010;29;20534;-74
2021/06/06 10:37:07;;;;;;;8.50;7.70;;;;;;;21.67;63.29;99971.28;4954299;28;20444;-73
2021/06/06 10:39:38;;;;;;;9.70;8.30;;;;;;;21.43;63.77;99969.91;4955282;29;20761;-73
2021/06/06 10:42:08;;;;;;;8.83;7.83;;;;;;;20.98;64.84;99970.63;4948316;29;20435;-73
2021/06/06 10:44:43;;;;;;;7.90;7.10;;;;;;;21.13;63.82;99967.41;4955524;29;20808;-74
2021/06/06 10:47:15;;;;;;;8.33;7.53;;;;;;;20.61;64.87;99971.38;4948047;29;20440;-74
2021/06/06 10:49:50;;;;;;;8.23;7.27;;;;;;;20.51;65.56;99970.50;4955134;29;20444;-74
2021/06/06 10:52:24;;;;;;;8.27;7.47;;;;;;;20.67;65.69;99975.41;4937406;29;20479;-72
2021/06/06 10:54:54;;;;;;;8.70;7.90;;;;;;;20.76;65.55;99968.22;4936426;29;20441;-75
2021/06/06 10:57:35;;;;;;;9.87;8.83;;;;;;;21.38;63.88;99964.00;4948054;29;20499;-74
2021/06/06 11:00:20;;;;;;;9.83;7.37;;;;;;;21.60;62.58;99953.72;4954652;29;20436;-73
2021/06/06 11:02:55;;;;;;;9.33;7.90;;;;;;;21.75;62.26;99952.19;4948521;29;20512;-75
2021/06/06 11:05:38;;;;;;;7.70;6.87;;;;;;;21.74;61.79;99955.94;4944123;29;20547;-74
2021/06/06 11:08:20;;;;;;;10.23;9.20;;;;;;;22.13;61.25;99952.97;4952280;29;20519;-74
2021/06/06 11:10:48;;;;;;;7.50;6.77;;;;;;;22.20;59.93;99954.06;4949628;28;20444;-73
2021/06/06 11:13:30;;;;;;;7.60;6.90;;;;;;;22.42;58.60;99955.50;4937815;29;20986;-73
2021/06/06 11:15:58;;;;;;;7.33;6.63;;;;;;;22.11;59.71;99956.88;4951582;29;20460;-73
2021/06/06 11:18:26;;;;;;;9.30;7.53;;;;;;;21.72;61.05;99949.75;4945182;28;20541;-73
2021/06/06 11:20:55;;;;;;;7.60;7.00;;;;;;;21.96;60.61;99948.34;4949304;29;20484;-74
2021/06/06 11:23:35;;;;;;;8.40;6.63;;;;;;;21.31;63.11;99957.41;4955253;29;21019;-74
2021/06/06 11:26:16;;;;;;;8.03;7.27;;;;;;;21.77;61.75;99961.09;4936533;29;20429;-74